Aérodrome :
LOGIN :

S'inscrire | Disclaimer

   EN    FR    IT 

 










Légende :    VFR   VFR Marginal   IFR   IFR Intensif   IFR Très Intensif
Visi : 
Plafond : 
>= 8 km
>= 3000ft
5 à 8 km
1000 à 3000 ft
1500m à 5 km
500 à 1000 ft
800 à 1500m
200 à 500 ft
< 800m
< 200 ft
Symboles :   Orages  Brouillard  Fortes neiges  Fortes précipitations  Vent > 20 kt
SIGMETs :   Divers  Orages  Givrage  Turbulence  Onde Orograph.  Cendres Volcan.







- Altitude de l'aérodrome : 44 ft
- Code IATA : SOU
- Voir les cartes d'approche


EGHI - Southampton

DERNIER METAR :
  • 171420Z 22009KT 170V280 9999 SCT035 20/12 Q1021

METARs EXPIRÉS :
  • 171350Z 23008KT 210V280 9999 FEW030 SCT042 18/12 Q1021
  • 171320Z 21010KT 9999 FEW032 SCT046 20/12 Q1021
  • 171250Z 21010KT 160V240 9999 FEW032 SCT042 19/11 Q1021
  • 171220Z 24007KT 200V290 9999 FEW034 SCT042 18/10 Q1021
  • 171150Z 26005KT 230V290 9999 FEW028 SCT040 18/09 Q1021

TAF TAF EGHI
Valide du 17 à 12h jusqu'au 17 à 21h UTC


171051Z 1712/1721 25012KT 9999 FEW030
ATIS : +44 23 8062 7103
Pas de NOTAMs connus pour ce terrain.



MET'MAP, la Météo Aéronautique d'un coup d'oeil ! - Copyright ORBIFLY Décembre 2007 - Disclaimer

ORBIFLY MET'MAP TEAM :

Programmation & Développement : Alexandra Zaïnal
Conception & Développement : Baudouin d'Aumeries
Co-Programmation & Développement : Marc-Olivier Méhu
Soutien technique & logistique : Manuel Goepfert

Contact : metmap@orbifly.com




SOURCES & CREDITS :

   NOAA